Time,TemperatureF,DewpointF,PressureIn,WindDirection,WindDirectionDegrees,WindSpeedMPH,WindSpeedGustMPH,Humidity,HourlyPrecipIn,Conditions,Clouds,dailyrainin,SoftwareType,DateUTC
2013-10-08 00:02:00,46.0,42.4,30.13,West,270,0.0,0.0,87,0.00,,,0.04,open2300-1.11,2013-10-08 04:02:00,
2013-10-08 00:12:00,45.9,42.2,30.14,West,270,0.0,0.0,87,0.00,,,0.04,open2300-1.11,2013-10-08 04:12:00,
2013-10-08 00:22:00,45.7,42.1,30.14,West,270,0.0,0.0,87,0.00,,,0.04,open2300-1.11,2013-10-08 04:22:00,
2013-10-08 00:32:00,45.5,41.9,30.14,West,270,0.0,0.0,87,0.00,,,0.04,open2300-1.11,2013-10-08 04:32:00,
2013-10-08 00:42:00,45.5,42.2,30.14,West,270,0.0,0.0,88,0.00,,,0.04,open2300-1.11,2013-10-08 04:42:00,
2013-10-08 00:52:00,45.5,42.2,30.14,West,270,0.0,0.0,88,0.00,,,0.04,open2300-1.11,2013-10-08 04:52:00,
2013-10-08 01:02:00,45.3,42.0,30.14,West,270,0.0,0.0,88,0.00,,,0.04,open2300-1.11,2013-10-08 05:02:00,
2013-10-08 01:12:00,45.3,42.0,30.15,West,270,0.0,0.0,88,0.00,,,0.04,open2300-1.11,2013-10-08 05:12:00,
2013-10-08 01:22:00,45.3,42.0,30.15,West,270,0.0,0.0,88,0.00,,,0.04,open2300-1.11,2013-10-08 05:22:00,
2013-10-08 01:32:00,45.3,42.0,30.16,West,270,0.0,0.0,88,0.00,,,0.04,open2300-1.11,2013-10-08 05:32:00,
2013-10-08 01:42:00,45.3,42.0,30.16,West,270,0.0,0.0,88,0.00,,,0.04,open2300-1.11,2013-10-08 05:42:00,
2013-10-08 01:52:00,45.1,41.8,30.16,West,270,0.0,0.0,88,0.00,,,0.04,open2300-1.11,2013-10-08 05:52:00,
2013-10-08 02:02:00,45.1,41.8,30.16,West,270,0.0,0.0,88,0.00,,,0.04,open2300-1.11,2013-10-08 06:02:00,
2013-10-08 02:12:00,45.1,41.8,30.16,West,270,0.0,0.0,88,0.00,,,0.04,open2300-1.11,2013-10-08 06:12:00,
2013-10-08 02:22:00,45.0,41.7,30.16,West,270,0.0,0.0,88,0.00,,,0.04,open2300-1.11,2013-10-08 06:22:00,
2013-10-08 02:32:00,44.8,41.5,30.17,West,270,0.0,0.0,88,0.00,,,0.04,open2300-1.11,2013-10-08 06:32:00,
2013-10-08 02:42:00,44.4,41.1,30.17,West,270,0.0,0.0,88,0.00,,,0.04,open2300-1.11,2013-10-08 06:42:00,
2013-10-08 02:52:00,44.1,40.8,30.17,West,270,0.0,0.0,88,0.00,,,0.04,open2300-1.11,2013-10-08 06:52:00,
2013-10-08 03:02:00,43.9,40.6,30.17,West,270,0.0,0.0,88,0.00,,,0.00,open2300-1.11,2013-10-08 07:02:00,
2013-10-08 03:12:00,43.5,40.2,30.17,West,270,0.0,0.0,88,0.00,,,0.00,open2300-1.11,2013-10-08 07:12:00,
2013-10-08 03:22:00,43.5,40.2,30.17,West,270,0.0,0.0,88,0.00,,,0.00,open2300-1.11,2013-10-08 07:22:00,
2013-10-08 03:32:00,43.3,40.0,30.17,West,270,0.0,0.0,88,0.00,,,0.00,open2300-1.11,2013-10-08 07:32:00,
2013-10-08 03:42:00,43.2,39.8,30.17,West,270,0.0,0.0,88,0.00,,,0.00,open2300-1.11,2013-10-08 07:42:00,
2013-10-08 03:52:00,43.2,39.8,30.17,West,270,0.0,0.0,88,0.00,,,0.00,open2300-1.11,2013-10-08 07:52:00,
2013-10-08 04:02:00,43.2,39.8,30.17,West,270,0.0,0.0,88,0.00,,,0.00,open2300-1.11,2013-10-08 08:02:00,
2013-10-08 04:12:00,43.2,40.2,30.18,West,270,0.0,0.0,89,0.00,,,0.00,open2300-1.11,2013-10-08 08:12:00,
2013-10-08 04:22:00,43.3,40.3,30.19,West,270,0.0,0.0,89,0.00,,,0.00,open2300-1.11,2013-10-08 08:22:00,
2013-10-08 04:32:00,43.3,40.3,30.19,West,270,0.0,0.0,89,0.00,,,0.00,open2300-1.11,2013-10-08 08:32:00,
2013-10-08 04:42:00,43.5,40.5,30.19,West,270,0.0,0.0,89,0.00,,,0.00,open2300-1.11,2013-10-08 08:42:00,
2013-10-08 04:52:00,43.5,40.5,30.19,West,270,0.0,0.0,89,0.00,,,0.00,open2300-1.11,2013-10-08 08:52:00,
2013-10-08 05:02:00,43.7,40.7,30.20,West,270,0.0,0.0,89,0.00,,,0.00,open2300-1.11,2013-10-08 09:02:00,
2013-10-08 05:12:00,43.7,40.7,30.20,West,270,0.0,0.0,89,0.00,,,0.00,open2300-1.11,2013-10-08 09:12:00,
2013-10-08 05:22:00,43.7,40.7,30.21,West,270,0.0,0.0,89,0.00,,,0.00,open2300-1.11,2013-10-08 09:22:00,
2013-10-08 05:32:00,43.7,40.7,30.21,West,270,0.0,0.0,89,0.00,,,0.00,open2300-1.11,2013-10-08 09:32:00,
2013-10-08 05:42:00,43.5,40.5,30.21,West,270,0.0,0.0,89,0.00,,,0.00,open2300-1.11,2013-10-08 09:42:00,
2013-10-08 05:52:00,43.3,40.3,30.21,West,270,0.0,0.0,89,0.00,,,0.00,open2300-1.11,2013-10-08 09:52:00,
2013-10-08 06:02:00,43.0,40.0,30.21,West,270,0.0,0.0,89,0.00,,,0.00,open2300-1.11,2013-10-08 10:02:00,
2013-10-08 06:12:00,42.6,39.6,30.22,West,270,0.0,0.0,89,0.00,,,0.00,open2300-1.11,2013-10-08 10:12:00,
2013-10-08 06:22:00,42.4,39.4,30.22,West,270,0.0,0.0,89,0.00,,,0.00,open2300-1.11,2013-10-08 10:22:00,
2013-10-08 06:32:00,42.1,39.1,30.22,West,270,0.0,0.0,89,0.00,,,0.00,open2300-1.11,2013-10-08 10:32:00,
2013-10-08 06:42:00,41.9,38.9,30.23,West,270,0.0,0.0,89,0.00,,,0.00,open2300-1.11,2013-10-08 10:42:00,
2013-10-08 06:52:00,41.7,38.7,30.23,West,270,0.0,0.0,89,0.00,,,0.00,open2300-1.11,2013-10-08 10:52:00,
2013-10-08 07:02:00,41.5,38.5,30.24,West,270,0.0,0.0,89,0.00,,,0.00,open2300-1.11,2013-10-08 11:02:00,
2013-10-08 07:12:00,41.5,38.5,30.24,West,270,0.0,0.0,89,0.00,,,0.00,open2300-1.11,2013-10-08 11:12:00,
2013-10-08 07:22:00,41.2,38.2,30.24,West,270,0.0,0.0,89,0.00,,,0.00,open2300-1.11,2013-10-08 11:22:00,
2013-10-08 07:32:00,41.2,38.2,30.25,West,270,0.0,0.0,89,0.00,,,0.00,open2300-1.11,2013-10-08 11:32:00,
2013-10-08 07:42:00,41.2,38.2,30.25,West,270,0.0,0.0,89,0.00,,,0.00,open2300-1.11,2013-10-08 11:42:00,
2013-10-08 07:52:00,41.2,38.2,30.25,West,270,0.0,0.0,89,0.00,,,0.00,open2300-1.11,2013-10-08 11:52:00,
2013-10-08 08:02:00,41.2,38.2,30.25,West,270,0.0,0.0,89,0.00,,,0.00,open2300-1.11,2013-10-08 12:02:00,
2013-10-08 08:12:00,41.4,38.3,30.26,West,270,0.0,0.0,89,0.00,,,0.00,open2300-1.11,2013-10-08 12:12:00,
2013-10-08 08:22:00,41.5,38.5,30.26,West,270,0.0,0.0,89,0.00,,,0.00,open2300-1.11,2013-10-08 12:22:00,
2013-10-08 08:32:00,41.7,38.7,30.27,West,270,0.0,0.0,89,0.00,,,0.00,open2300-1.11,2013-10-08 12:32:00,
2013-10-08 08:42:00,42.1,39.1,30.27,West,270,0.0,0.0,89,0.00,,,0.00,open2300-1.11,2013-10-08 12:42:00,
2013-10-08 08:52:00,42.6,39.6,30.28,West,270,0.0,0.0,89,0.00,,,0.00,open2300-1.11,2013-10-08 12:52:00,
2013-10-08 09:02:00,43.3,40.2,30.28,West,270,0.0,0.0,89,0.00,,,0.00,open2300-1.11,2013-10-08 13:02:00,
2013-10-08 09:12:00,43.9,41.2,30.29,West,270,0.0,0.0,90,0.00,,,0.00,open2300-1.11,2013-10-08 13:12:00,
2013-10-08 09:22:00,44.4,41.7,30.29,West,270,0.0,0.0,90,0.00,,,0.00,open2300-1.11,2013-10-08 13:22:00,
2013-10-08 09:32:00,45.3,42.6,30.29,West,270,0.0,0.0,90,0.00,,,0.00,open2300-1.11,2013-10-08 13:32:00,
2013-10-08 09:42:00,46.2,43.5,30.30,West,270,0.0,0.0,90,0.00,,,0.00,open2300-1.11,2013-10-08 13:42:00,
2013-10-08 09:52:00,47.1,44.4,30.30,West,270,0.0,0.0,90,0.00,,,0.00,open2300-1.11,2013-10-08 13:52:00,
2013-10-08 10:02:00,48.0,45.3,30.30,West,270,0.0,0.0,90,0.00,,,0.00,open2300-1.11,2013-10-08 14:02:00,
2013-10-08 10:12:00,49.3,46.5,30.30,West,270,0.0,0.0,90,0.00,,,0.00,open2300-1.11,2013-10-08 14:12:00,
2013-10-08 10:22:00,50.4,47.5,30.30,West,270,0.0,0.0,90,0.00,,,0.00,open2300-1.11,2013-10-08 14:22:00,
2013-10-08 10:32:00,51.3,48.7,30.30,West,270,0.0,0.0,91,0.00,,,0.00,open2300-1.11,2013-10-08 14:32:00,
2013-10-08 10:42:00,52.2,49.3,30.30,West,270,0.0,0.0,90,0.00,,,0.00,open2300-1.11,2013-10-08 14:42:00,
2013-10-08 10:52:00,53.2,50.4,30.30,West,270,0.0,0.0,90,0.00,,,0.00,open2300-1.11,2013-10-08 14:52:00,
2013-10-08 11:02:00,54.3,51.1,30.30,West,270,0.0,0.0,89,0.00,,,0.00,open2300-1.11,2013-10-08 15:02:00,
2013-10-08 11:12:00,55.6,51.4,30.30,West,270,0.0,0.0,86,0.00,,,0.00,open2300-1.11,2013-10-08 15:12:00,
2013-10-08 11:22:00,56.8,51.4,30.30,NW,315,0.0,0.0,82,0.00,,,0.00,open2300-1.11,2013-10-08 15:22:00,
2013-10-08 11:32:00,57.9,51.4,30.29,NW,315,0.0,0.0,79,0.00,,,0.00,open2300-1.11,2013-10-08 15:32:00,
2013-10-08 11:42:00,58.8,50.9,30.30,WSW,247,0.0,0.0,75,0.00,,,0.00,open2300-1.11,2013-10-08 15:42:00,
2013-10-08 11:52:00,59.7,50.7,30.30,WSW,247,0.0,0.0,72,0.00,,,0.00,open2300-1.11,2013-10-08 15:52:00,
2013-10-08 12:02:00,60.6,49.2,30.30,West,270,0.0,0.0,66,0.00,,,0.00,open2300-1.11,2013-10-08 16:02:00,
2013-10-08 12:12:00,61.5,49.2,30.30,West,270,0.0,0.0,64,0.00,,,0.00,open2300-1.11,2013-10-08 16:12:00,
2013-10-08 12:22:00,62.2,49.5,30.30,West,270,0.0,0.0,63,0.00,,,0.00,open2300-1.11,2013-10-08 16:22:00,
2013-10-08 12:32:00,62.6,49.0,30.30,West,270,0.0,0.0,61,0.00,,,0.00,open2300-1.11,2013-10-08 16:32:00,
2013-10-08 12:42:00,63.1,48.6,30.30,West,270,0.0,0.0,59,0.00,,,0.00,open2300-1.11,2013-10-08 16:42:00,
2013-10-08 12:52:00,63.5,48.9,30.30,West,270,0.0,0.0,59,0.00,,,0.00,open2300-1.11,2013-10-08 16:52:00,
2013-10-08 13:02:00,63.7,49.0,30.30,West,270,0.0,0.0,59,0.00,,,0.00,open2300-1.11,2013-10-08 17:02:00,
2013-10-08 13:12:00,64.0,48.9,30.29,West,270,0.0,0.0,58,0.00,,,0.00,open2300-1.11,2013-10-08 17:12:00,
2013-10-08 13:22:00,64.6,48.9,30.29,West,270,0.0,0.0,57,0.00,,,0.00,open2300-1.11,2013-10-08 17:22:00,
2013-10-08 13:32:00,65.7,50.0,30.29,West,270,0.0,0.0,57,0.00,,,0.00,open2300-1.11,2013-10-08 17:32:00,
2013-10-08 13:42:00,66.0,49.4,30.28,West,270,0.0,0.0,55,0.00,,,0.00,open2300-1.11,2013-10-08 17:42:00,
2013-10-08 13:52:00,66.6,49.4,30.29,West,270,0.0,0.0,54,0.00,,,0.00,open2300-1.11,2013-10-08 17:52:00,
2013-10-08 14:02:00,66.4,49.2,30.28,West,270,0.0,0.0,54,0.00,,,0.00,open2300-1.11,2013-10-08 18:02:00,
2013-10-08 14:12:00,67.1,49.9,30.27,West,270,0.0,0.0,54,0.00,,,0.00,open2300-1.11,2013-10-08 18:12:00,
2013-10-08 14:22:00,67.3,49.1,30.27,West,270,0.0,0.0,52,0.00,,,0.00,open2300-1.11,2013-10-08 18:22:00,
2013-10-08 14:32:00,67.3,49.1,30.27,West,270,0.0,0.0,52,0.00,,,0.00,open2300-1.11,2013-10-08 18:32:00,
2013-10-08 14:42:00,68.2,49.4,30.26,WSW,247,0.0,0.0,51,0.00,,,0.00,open2300-1.11,2013-10-08 18:42:00,
2013-10-08 14:52:00,67.3,49.1,30.26,WSW,247,0.0,0.0,52,0.00,,,0.00,open2300-1.11,2013-10-08 18:52:00,
2013-10-08 15:02:00,67.8,49.1,30.26,SW,225,0.0,0.0,51,0.00,,,0.00,open2300-1.11,2013-10-08 19:02:00,
2013-10-08 15:12:00,68.7,49.4,30.27,SW,225,0.0,0.0,50,0.00,,,0.00,open2300-1.11,2013-10-08 19:12:00,
2013-10-08 15:22:00,69.1,49.7,30.27,SW,225,0.0,0.0,50,0.00,,,0.00,open2300-1.11,2013-10-08 19:22:00,
2013-10-08 15:32:00,68.5,48.6,30.27,SW,225,0.0,0.0,49,0.00,,,0.00,open2300-1.11,2013-10-08 19:32:00,
2013-10-08 15:42:00,67.6,47.8,30.27,SW,225,0.0,0.0,49,0.00,,,0.00,open2300-1.11,2013-10-08 19:42:00,
2013-10-08 15:52:00,67.5,47.7,30.26,SW,225,0.0,0.0,49,0.00,,,0.00,open2300-1.11,2013-10-08 19:52:00,
2013-10-08 16:02:00,66.9,47.8,30.26,SW,225,0.0,0.0,50,0.00,,,0.00,open2300-1.11,2013-10-08 20:02:00,
2013-10-08 16:12:00,66.6,47.4,30.26,SW,225,0.0,0.0,50,0.00,,,0.00,open2300-1.11,2013-10-08 20:12:00,
2013-10-08 16:22:00,66.2,47.1,30.26,SW,225,0.0,0.0,50,0.00,,,0.00,open2300-1.11,2013-10-08 20:22:00,
2013-10-08 16:32:00,65.8,47.2,30.26,SW,225,0.0,0.0,51,0.00,,,0.00,open2300-1.11,2013-10-08 20:32:00,
2013-10-08 16:42:00,65.1,46.5,30.26,SW,225,0.0,0.0,51,0.00,,,0.00,open2300-1.11,2013-10-08 20:42:00,
2013-10-08 16:52:00,64.8,46.7,30.26,SW,225,0.0,0.0,52,0.00,,,0.00,open2300-1.11,2013-10-08 20:52:00,
2013-10-08 17:02:00,64.2,45.6,30.26,SW,225,0.0,0.0,51,0.00,,,0.00,open2300-1.11,2013-10-08 21:02:00,
2013-10-08 17:12:00,64.0,46.5,30.27,SW,225,0.0,0.0,53,0.00,,,0.00,open2300-1.11,2013-10-08 21:12:00,
2013-10-08 17:22:00,63.7,46.1,30.27,SW,225,0.0,0.0,53,0.00,,,0.00,open2300-1.11,2013-10-08 21:22:00,
2013-10-08 17:32:00,63.5,46.9,30.27,SW,225,0.0,0.0,55,0.00,,,0.00,open2300-1.11,2013-10-08 21:32:00,
2013-10-08 17:42:00,63.0,46.0,30.27,SW,225,0.0,0.0,54,0.00,,,0.00,open2300-1.11,2013-10-08 21:42:00,
2013-10-08 17:52:00,62.4,46.5,30.26,SW,225,0.0,0.0,56,0.00,,,0.00,open2300-1.11,2013-10-08 21:52:00,
2013-10-08 18:02:00,61.9,46.0,30.27,SW,225,0.0,0.0,56,0.00,,,0.00,open2300-1.11,2013-10-08 22:02:00,
2013-10-08 18:12:00,61.3,46.0,30.27,SW,225,0.0,0.0,57,0.00,,,0.00,open2300-1.11,2013-10-08 22:12:00,
2013-10-08 18:22:00,60.8,46.5,30.27,SW,225,0.0,0.0,59,0.00,,,0.00,open2300-1.11,2013-10-08 22:22:00,
2013-10-08 18:32:00,60.1,46.2,30.27,SW,225,0.0,0.0,60,0.00,,,0.00,open2300-1.11,2013-10-08 22:32:00,
2013-10-08 18:42:00,59.2,45.7,30.27,SW,225,0.0,0.0,61,0.00,,,0.00,open2300-1.11,2013-10-08 22:42:00,
2013-10-08 18:52:00,58.8,46.2,30.27,SW,225,0.0,0.0,63,0.00,,,0.00,open2300-1.11,2013-10-08 22:52:00,
2013-10-08 19:02:00,57.9,45.4,30.27,SW,225,0.0,0.0,63,0.00,,,0.00,open2300-1.11,2013-10-08 23:02:00,
2013-10-08 19:12:00,57.4,45.3,30.27,SW,225,0.0,0.0,64,0.00,,,0.00,open2300-1.11,2013-10-08 23:12:00,
2013-10-08 19:22:00,56.5,44.4,30.28,SW,225,0.0,0.0,64,0.00,,,0.00,open2300-1.11,2013-10-08 23:22:00,
2013-10-08 19:32:00,55.9,44.3,30.28,SW,225,0.0,0.0,65,0.00,,,0.00,open2300-1.11,2013-10-08 23:32:00,
2013-10-08 19:42:00,55.2,43.6,30.28,SW,225,0.0,0.0,65,0.00,,,0.00,open2300-1.11,2013-10-08 23:42:00,
2013-10-08 19:52:00,54.5,42.9,30.28,SW,225,0.0,0.0,65,0.00,,,0.00,open2300-1.11,2013-10-08 23:52:00,
2013-10-08 20:02:00,53.8,42.2,30.28,SW,225,0.0,0.0,65,0.00,,,0.00,open2300-1.11,2013-10-09 00:02:00,
2013-10-08 20:12:00,53.2,42.5,30.28,SW,225,0.0,0.0,67,0.00,,,0.00,open2300-1.11,2013-10-09 00:12:00,
2013-10-08 20:22:00,52.7,42.8,30.28,SW,225,0.0,0.0,69,0.00,,,0.00,open2300-1.11,2013-10-09 00:22:00,
2013-10-08 20:32:00,52.3,42.9,30.28,SW,225,0.0,0.0,70,0.00,,,0.00,open2300-1.11,2013-10-09 00:32:00,
2013-10-08 20:42:00,52.0,42.6,30.28,SW,225,0.0,0.0,70,0.00,,,0.00,open2300-1.11,2013-10-09 00:42:00,
2013-10-08 20:52:00,51.4,42.8,30.28,SW,225,0.0,0.0,72,0.00,,,0.00,open2300-1.11,2013-10-09 00:52:00,
2013-10-08 21:02:00,51.1,42.4,30.29,SW,225,0.0,0.0,72,0.00,,,0.00,open2300-1.11,2013-10-09 01:02:00,
2013-10-08 21:12:00,50.7,41.7,30.29,SW,225,0.0,0.0,71,0.00,,,0.00,open2300-1.11,2013-10-09 01:12:00,
2013-10-08 21:22:00,50.7,42.0,30.29,SW,225,0.0,0.0,72,0.00,,,0.00,open2300-1.11,2013-10-09 01:22:00,
2013-10-08 21:32:00,50.5,41.5,30.30,SW,225,0.0,0.0,71,0.00,,,0.00,open2300-1.11,2013-10-09 01:32:00,
2013-10-08 21:42:00,50.5,41.9,30.30,SW,225,0.0,0.0,72,0.00,,,0.00,open2300-1.11,2013-10-09 01:42:00,
2013-10-08 21:52:00,50.2,41.5,30.30,SW,225,0.0,0.0,72,0.00,,,0.00,open2300-1.11,2013-10-09 01:52:00,
2013-10-08 22:02:00,49.8,41.1,30.30,SW,225,0.0,0.0,72,0.00,,,0.00,open2300-1.11,2013-10-09 02:02:00,
2013-10-08 22:12:00,49.6,41.7,30.30,SW,225,0.0,0.0,74,0.00,,,0.00,open2300-1.11,2013-10-09 02:12:00,
2013-10-08 22:22:00,49.3,41.6,30.30,SW,225,0.0,0.0,75,0.00,,,0.00,open2300-1.11,2013-10-09 02:22:00,
2013-10-08 22:32:00,49.1,41.8,30.30,SW,225,0.0,0.0,76,0.00,,,0.00,open2300-1.11,2013-10-09 02:32:00,
2013-10-08 22:42:00,48.9,41.6,30.30,SW,225,0.0,0.0,76,0.00,,,0.00,open2300-1.11,2013-10-09 02:42:00,
2013-10-08 22:52:00,48.7,41.8,30.30,SW,225,0.0,0.0,77,0.00,,,0.00,open2300-1.11,2013-10-09 02:52:00,
2013-10-08 23:02:00,48.7,41.8,30.30,SW,225,0.0,0.0,77,0.00,,,0.00,open2300-1.11,2013-10-09 03:02:00,
2013-10-08 23:12:00,48.7,42.1,30.30,SW,225,0.0,0.0,78,0.00,,,0.00,open2300-1.11,2013-10-09 03:12:00,
2013-10-08 23:22:00,48.7,42.5,30.30,SW,225,0.0,0.0,79,0.00,,,0.00,open2300-1.11,2013-10-09 03:22:00,
2013-10-08 23:32:00,48.4,42.1,30.30,SW,225,0.0,0.0,79,0.00,,,0.00,open2300-1.11,2013-10-09 03:32:00,
2013-10-08 23:42:00,48.2,42.3,30.30,SW,225,0.0,0.0,80,0.00,,,0.00,open2300-1.11,2013-10-09 03:42:00,
2013-10-08 23:52:00,48.0,42.4,30.30,SW,225,0.0,0.0,81,0.00,,,0.00,open2300-1.11,2013-10-09 03:52:00,